Terminal Aerodrome Forecast
Issued by NWS

Home | Current Version | Previous Version | Text Only | Print | Product List | Glossary On
Versions: 1 2 3 4 5 6 7 8 9 10 11 12 13 14 15 16 17 18 19 20 21 22 23 24
379
FTUS46 KSGX 082059 AAA
TAFSAN
TAF AMD
KSAN 082059Z 0821/0924 32008KT P6SM SKC
     FM090200 05003KT P6SM SKC
     FM092000 30008KT P6SM SKC=

USA.gov is the U.S. government's official web portal to all federal, state and local government web resources and services.